SSEC Globe Logo

Space Science and Engineering Center

Surface Aviation Observations

KAIG 161455Z AUTO 17010G14KT 7SM DZ OVC006 17/17 A2982 RMK
     AO2 T01670165=
KAIG 161455Z AUTO 17010G14KT 7SM DZ OVC006 17/17 A2982 RMK
     AO2 T01670165=
KC29 161455Z AUTO 14006KT 10SM SCT042 SCT050 SCT065 22/22
     A2985 RMK AO1 60023 T02230221=
KC29 161455Z AUTO 14006KT 10SM SCT042 SCT050 SCT065 22/22
     A2985 RMK AO1 60023 T02230221=
KBCK 161455Z AUTO 19006KT 10SM -RA OVC011 19/19 A2976 RMK
     AO2 P0004 60006 T01920192=
KBCK 161455Z AUTO 19006KT 10SM -RA OVC011 19/19 A2976 RMK
     AO2 P0004 60006 T01920192=
KUBE 161455Z AUTO 19010KT 10SM BKN031 OVC039 20/18 A2969 RMK
     AO2=
KPVB 161455Z AUTO 18013KT 10SM CLR 24/19 A2984 RMK AO1
     T02390192=
KPVB 161455Z AUTO 18013KT 10SM CLR 24/19 A2984 RMK AO1
     T02390192=
KEZS 161455Z AUTO 17006KT 10SM -RA BKN012 BKN110 20/19 A2984
     RMK AO2 60002 T01960189=
KEZS 161455Z AUTO 17006KT 10SM -RA BKN012 BKN110 20/19 A2984
     RMK AO2 60002 T01960189=
KARV 161455Z AUTO 18007KT 7SM -RA OVC007 17/16 A2978 RMK AO2
     P0006 60006 T01660160=
KARV 161455Z AUTO 18007KT 7SM -RA OVC007 17/16 A2978 RMK AO2
     P0006 60006 T01660160=
KASX 161453Z AUTO 19009G16KT 10SM OVC018 22/18 A2968 RMK AO2
     SLP048 60001 T02170178 55006=
KASX 161453Z AUTO 19009G16KT 10SM OVC018 22/18 A2968 RMK AO2
     SLP048 60001 T02170178 55006=
KATW 161445Z 18012G16KT 5SM RA BR SCT008 BKN032 19/18 A2985=
KATW 161445Z 18012G16KT 5SM RA BR SCT008 BKN032 19/18 A2985=
KAUW 161454Z AUTO 15005KT 4SM -RA BR OVC009 18/18 A2978 RMK
     AO2 RAB06 CIG 006V011 SLP087 P0015 60017 T01830178
     56009=
KAUW 161454Z AUTO 15005KT 4SM -RA BR OVC009 18/18 A2978 RMK
     AO2 RAB06 CIG 006V011 SLP087 P0015 60017 T01830178
     56009=
KBUU 161455Z AUTO 11004KT 10SM OVC041 20/17 A2992 RMK AO2
     T01950166 PWINO=
KBUU 161455Z AUTO 11004KT 10SM OVC041 20/17 A2992 RMK AO2
     T01950166 PWINO=
KCLI 161455Z AUTO 17013G17KT 10SM -RA OVC009 18/17 A2985 RMK
     AO2 T01810172 60001=
KCLI 161455Z AUTO 17013G17KT 10SM -RA OVC009 18/17 A2985 RMK
     AO2 T01810172 60001=
KCMY 161455Z AUTO 18007KT 4SM -RA BR BKN090 19/19 A2975 RMK
     AO2 RAE33RAB37 PRESFR SLP074 P0009 60015 T01910189
     58002 $=
KCWA 161447Z 17011KT 10SM OVC004 18/17 A2980=
KCWA 161447Z 17011KT 10SM OVC004 18/17 A2980=
KDLL 161455Z AUTO 17016G19KT 10SM BKN035 BKN041 BKN050 22/19
     A2983 RMK AO2 60018 T02210189=
KDLL 161455Z AUTO 17016G19KT 10SM BKN035 BKN041 BKN050 22/19
     A2983 RMK AO2 60018 T02210189=
KEAU 161456Z 18011KT 10SM BKN012 OVC050 21/18 A2969 RMK AO2
     SLP052 60011 T02060183 58006 $=
KEAU 161456Z 18011KT 10SM BKN012 OVC050 21/18 A2969 RMK AO2
     SLP052 60011 T02060183 58006 $=
KEFT 161455Z AUTO 18010G18KT 10SM SCT060 24/18 A2986 RMK AO2
     60010 T02400180=
KEFT 161455Z AUTO 18010G18KT 10SM SCT060 24/18 A2986 RMK AO2
     60010 T02400180=
KEGV 161455Z AUTO 19004KT 4SM RA BKN008 OVC012 16/16 A2979
     RMK AO2 P0010 60013 T01600160=
KEGV 161455Z AUTO 19004KT 4SM RA BKN008 OVC012 16/16 A2979
     RMK AO2 P0010 60013 T01600160=
KENW 161453Z 18007KT 10SM FEW050 BKN060 27/14 A2991 RMK AO2
     LTG DSNT ALQDS SLP123 T02670144 57004=
KENW 161453Z 18007KT 10SM FEW050 BKN060 27/14 A2991 RMK AO2
     LTG DSNT ALQDS SLP123 T02670144 57004=
KFLD 161453Z AUTO 15015KT 5SM -TSRA BR FEW050 SCT065 BKN095
     18/16 A2987 RMK AO2 LTG DSNT W-N RAE08B51 TSB53 SLP111
     P0003 60035 T01830161 56019=
KFLD 161453Z AUTO 15015KT 5SM -TSRA BR FEW050 SCT065 BKN095
     18/16 A2987 RMK AO2 LTG DSNT W-N RAE08B51 TSB53 SLP111
     P0003 60035 T01830161 56019=
KFLD 161448Z AUTO 16014KT 10SM VCTS FEW050 SCT065 SCT095
     19/16 A2987 RMK AO2 LTG DSNT SW-N RAE08 P0000=
KGRB 161453Z 18009KT 10SM SCT120 19/17 A2984 RMK AO2 RAE43
     SLP103 P0004 60016 T01890167 58009=
KGRB 161453Z 18009KT 10SM SCT120 19/17 A2984 RMK AO2 RAE43
     SLP103 P0004 60016 T01890167 58009=
KHYR 161453Z AUTO 18008KT 10SM BKN020 OVC030 19/17 A2970 RMK
     AO2 SLP056 T01940172 55001=
KHYR 161453Z AUTO 18008KT 10SM BKN020 OVC030 19/17 A2970 RMK
     AO2 SLP056 T01940172 55001=
KISW 161454Z AUTO 19008G17KT 9SM -RA BKN007 BKN013 OVC037
     19/18 A2981 RMK AO2 CIG 005V009 SLP091 P0005 60009
     T01890178 56006=
KISW 161454Z AUTO 19008G17KT 9SM -RA BKN007 BKN013 OVC037
     19/18 A2981 RMK AO2 CIG 005V009 SLP091 P0005 60009
     T01890178 56006=
KJVL 161445Z 12010KT 7SM BR SCT050 SCT070 SCT110 23/19
     A2987=
KJVL 161445Z 12010KT 7SM BR SCT050 SCT070 SCT110 23/19
     A2987=
KLNL 161455Z AUTO 19006KT 7SM -RA BKN007 BKN013 OVC043 17/16
     A2981 RMK AO2 T01660160=
KLNL 161455Z AUTO 19006KT 7SM -RA BKN007 BKN013 OVC043 17/16
     A2981 RMK AO2 T01660160=
KLNR 161456Z AUTO 17003KT 10SM OVC033 23/18 A2982 RMK AO2
     SLP089 60007 T02280183 56014=
KLNR 161456Z AUTO 17003KT 10SM OVC033 23/18 A2982 RMK AO2
     SLP089 60007 T02280183 56014=
KLSE 161453Z 15007KT 10SM BKN008 OVC095 20/18 A2975 RMK AO2
     RAE46 SLP067 P0011 60015 T02000178 58001=
KLSE 161453Z 15007KT 10SM BKN008 OVC095 20/18 A2975 RMK AO2
     RAE46 SLP067 P0011 60015 T02000178 58001=
KLUM 161455Z AUTO 18009KT 10SM OVC046 20/20 A2971 RMK AO2
     T02030203 PWINO=
KLUM 161455Z AUTO 18009KT 10SM OVC046 20/20 A2971 RMK AO2
     T02030203 PWINO=
KMDZ 161455Z AUTO 18011G16KT 10SM OVC008 18/16 A2977 RMK AO2
     T01800162 PWINO=
KMDZ 161455Z AUTO 18011G16KT 10SM OVC008 18/16 A2977 RMK AO2
     T01800162 PWINO=
KMFI 161454Z AUTO 19011KT 5SM -RA BR OVC005 18/18 A2978 RMK
     AO2 CIG 004V011 SLP083 P0006 60014 T01830178 56003=
KMFI 161454Z AUTO 19011KT 5SM -RA BR OVC005 18/18 A2978 RMK
     AO2 CIG 004V011 SLP083 P0006 60014 T01830178 56003=
KMKE 161452Z 00000KT 8SM -TSRA SCT055CB BKN070 OVC085 20/16
     A2993 RMK AO2 LTG DSNT ALQDS RAB25 TSB23 SLP131 FRQ
     LTGICCC ALQDS TS ALQDS MOV NE P0004 60004 T02000156
     50008=
KMKE 161452Z 00000KT 8SM -TSRA SCT055CB BKN070 OVC085 20/16
     A2993 RMK AO2 LTG DSNT ALQDS RAB25 TSB23 SLP131 FRQ
     LTGICCC ALQDS TS ALQDS MOV NE P0004 60004 T02000156
     50008=
KMRJ 161455Z AUTO 19009G16KT 10SM SCT036 BKN045 BKN050 23/18
     A2987 RMK AO2 PWINO=
KMRJ 161455Z AUTO 19009G16KT 10SM SCT036 BKN045 BKN050 23/18
     A2987 RMK AO2 PWINO=
KMSN 161453Z 15009KT 10SM FEW033 FEW065 SCT150 BKN250 21/18
     A2985 RMK AO2 LTG DSNT E SLP102 60023 T02110178 58015=
KMSN 161453Z 15009KT 10SM FEW033 FEW065 SCT150 BKN250 21/18
     A2985 RMK AO2 LTG DSNT E SLP102 60023 T02110178 58015=
KMTW 161456Z AUTO 14012KT 10SM -RA FEW015 SCT050 OVC100
     16/14 A2989 RMK AO2 SLP120 P0016 60029 T01610144 58010=
KMTW 161456Z AUTO 14012KT 10SM -RA FEW015 SCT050 OVC100
     16/14 A2989 RMK AO2 SLP120 P0016 60029 T01610144 58010=
KMWC 161445Z 15006KT 7SM -RA SCT040 SCT050 BKN070 18/16
     A2994=
KMWC 161445Z 15006KT 7SM -RA SCT040 SCT050 BKN070 18/16
     A2994=
KOEO 161455Z AUTO 18011G15KT 10SM SCT016 BKN022 OVC028 23/21
     A2969 RMK AO2 T02270207 PWINO=
KOEO 161455Z AUTO 18011G15KT 10SM SCT016 BKN022 OVC028 23/21
     A2969 RMK AO2 T02270207 PWINO=
KOSH 161453Z 18009KT 10SM TS SCT046 SCT055 BKN070 19/16
     A2986 RMK AO2 LTG DSNT S AND SW RAE08 TSB38 SLP100 TS W
     MOV NE P0000 60033 T01890161 58018=
KOSH 161453Z 18009KT 10SM TS SCT046 SCT055 BKN070 19/16
     A2986 RMK AO2 LTG DSNT S AND SW RAE08 TSB38 SLP100 TS W
     MOV NE P0000 60033 T01890161 58018=
KOVS 161453Z AUTO 18005KT 10SM -RA FEW060 BKN100 23/18 A2979
     RMK AO2 RAB49 PRESFR SLP084 P0000 60000 T02280183
     58017=
KOVS 161453Z AUTO 18005KT 10SM -RA FEW060 BKN100 23/18 A2979
     RMK AO2 RAB49 PRESFR SLP084 P0000 60000 T02280183
     58017=
KPBH 161455Z AUTO 19005KT 2SM +RA BKN006 OVC010 17/17 A2976
     RMK AO2 P0020 60040 T01660166=
KPBH 161455Z AUTO 19005KT 2SM +RA BKN006 OVC010 17/17 A2976
     RMK AO2 P0020 60040 T01660166=
KPCZ 161455Z AUTO 14007KT 10SM BKN042 OVC050 20/19 A2983 RMK
     AO2 P0006 60006 T01950185=
KPCZ 161455Z AUTO 14007KT 10SM BKN042 OVC050 20/19 A2983 RMK
     AO2 P0006 60006 T01950185=
KPDC 161455Z AUTO 00000KT 10SM -RA SCT023 SCT035 BKN047
     21/18 A2979 RMK AO2 T02050178=
KPDC 161455Z AUTO 00000KT 10SM -RA SCT023 SCT035 BKN047
     21/18 A2979 RMK AO2 T02050178=
KRAC 161453Z AUTO 12007KT 10SM OVC055 22/14 A2995 RMK AO2
     LTG DSNT SW-N SLP138 T02220144 53003=
KRAC 161453Z AUTO 12007KT 10SM OVC055 22/14 A2995 RMK AO2
     LTG DSNT SW-N SLP138 T02220144 53003=
KRCX 161455Z AUTO 15008KT OVC010 19/18 A2974 RMK AO2 P0002
     60007 T01850176 PWINO=
KRCX 161455Z AUTO 15008KT OVC010 19/18 A2974 RMK AO2 P0002
     60007 T01850176 PWINO=
KRHI 161453Z AUTO 18007KT 5SM -RA BR OVC012 17/16 A2980 RMK
     AO2 RAE21B39 SLP089 P0002 60005 T01720156 56005=
KRHI 161453Z AUTO 18007KT 5SM -RA BR OVC012 17/16 A2980 RMK
     AO2 RAE21B39 SLP089 P0002 60005 T01720156 56005=
KRNH 161455Z AUTO 18010G18KT 10SM SCT015 BKN027 OVC033 22/19
     A2968 RMK AO2 T02210190=
KRPD 161455Z AUTO 15006KT 7SM BKN008 OVC012 19/18 A2970 RMK
     AO2 60012 T01910175=
KRPD 161455Z AUTO 15006KT 7SM BKN008 OVC012 19/18 A2970 RMK
     AO2 60012 T01910175=
KRRL 161455Z AUTO 19005KT 7SM -RA OVC009 17/17 A2978 RMK AO2
     P0007 60009 T01720172 TSNO=
KRRL 161455Z AUTO 19005KT 7SM -RA OVC009 17/17 A2978 RMK AO2
     P0007 60009 T01720172 TSNO=
KRZN 161455Z AUTO 20008KT 10SM SCT015 BKN027 BKN035 21/18
     A2967 RMK AO2 T02060180=
KRZN 161455Z AUTO 20008KT 10SM SCT015 BKN027 BKN035 21/18
     A2967 RMK AO2 T02060180=
KSBM 161453Z AUTO 14008KT 10SM SCT110 17/16 A2990 RMK AO2
     LTG DSNT S AND W RAE47 SLP122 P0008 60014 T01670156
     58005=
KSBM 161453Z AUTO 14008KT 10SM SCT110 17/16 A2990 RMK AO2
     LTG DSNT S AND W RAE47 SLP122 P0008 60014 T01670156
     58005=
KSUE 161456Z AUTO 18019G26KT 10SM -RA FEW042 OVC060 16/14
     A2988 RMK AO2 PK WND 18026/1449 SLP117 6//// T01560139
     58010 PNO $=
KSUE 161456Z AUTO 18019G26KT 10SM -RA FEW042 OVC060 16/14
     A2988 RMK AO2 PK WND 18026/1449 SLP117 6//// T01560139
     58010 PNO $=
KSUW 161455Z AUTO 01004KT 10SM OVC002 12/11 A2968 RMK AO2
     T01180112=
KSUW 161455Z AUTO 01004KT 10SM OVC002 12/11 A2968 RMK AO2
     T01180112=
KTKV 161455Z AUTO 16006KT 1 1/2SM OVC007 18/16 A2979 RMK AO2
     P0011 60017 T01750161 PWINO=
KUES 161445Z 10006KT 10SM SCT050 OVC060 16/15 A2991 RMK
     TSE1445. TS E MOV E.=
KUES 161445Z 10006KT 10SM SCT050 OVC060 16/15 A2991 RMK
     TSE1445. TS E MOV E.=
KUNU 161455Z AUTO 14010G15KT 10SM SCT023 BKN048 BKN050 18/17
     A2989 RMK AO2 LTG DSNT N AND SE 60023 T01770166=
KUNU 161455Z AUTO 14010G15KT 10SM SCT023 BKN048 BKN050 18/17
     A2989 RMK AO2 LTG DSNT N AND SE 60023 T01770166=
KVOK 161455Z 15009KT 6SM -RA SCT055 OVC085 20/18 A2977 RMK
     AO2A SLP082 P0003 60010 T01970180 58002=
KVOK 161455Z 15009KT 6SM -RA SCT055 OVC085 20/18 A2977 RMK
     AO2A SLP082 P0003 60010 T01970180 58002=
KVOK 161455Z 15009KT 6SM -RA SCT055 OVC085 20/18 A2977 RMK
     AO2A SLP082 P0003 60010 T01970180 58002=
METAR KVOK 161455Z 15009KT 6SM -RA SCT055 OVC085 20/18 A2977
     RMK AO2A SLP082 P0003 60010 T01970180 58002=
METAR KVOK 161455Z 15009KT 6SM -RA SCT055 OVC085 20/18 A2977
     RMK AO2A SLP082 P0003 60010 T01970180 58002=
KY50 161456Z AUTO 17005KT 10SM OVC038 19/19 A2984 RMK AO2
     LTG DSNT E AND SE SLP098 60004 T01940194 58006 $=
KY50 161456Z AUTO 17005KT 10SM OVC038 19/19 A2984 RMK AO2
     LTG DSNT E AND SE SLP098 60004 T01940194 58006 $=
KY51 161455Z AUTO 16005KT 7SM 18/18 A2981 RMK AO2 P0007
     60023 T01830175=
KY51 161455Z AUTO 16005KT 7SM 18/18 A2981 RMK AO2 P0007
     60023 T01830175=
KY23 161455Z AUTO 19006KT 10SM BKN011 OVC040 21/20 A2970 RMK
     AO2 60002 T02080195=
K3D2 161455Z AUTO 18014G24KT 10SM -RA SCT029 BKN048 OVC060
     15/13 A2988 RMK AO2 P0002 60003 T01480131=
K3D2 161455Z AUTO 18014G24KT 10SM -RA SCT029 BKN048 OVC060
     15/13 A2988 RMK AO2 P0002 60003 T01480131=
K4R5 161455Z AUTO 21005KT 10SM OVC022 19/18 A2967 RMK AO2
     T01880177=
K4R5 161455Z AUTO 21005KT 10SM OVC022 19/18 A2967 RMK AO2
     T01880177=
KD25 161455Z AUTO 18008KT 5SM +DZ OVC004 17/17 A2976 RMK AO2
     P0017 60028 T01660166=
KD25 161455Z AUTO 18008KT 5SM +DZ OVC004 17/17 A2976 RMK AO2
     P0017 60028 T01660166=
K82C 161455Z AUTO 16008KT 7SM -RA SCT034 BKN065 OVC095 19/19
     A2980 RMK AO2 T01940194=
K82C 161455Z AUTO 16008KT 7SM -RA SCT034 BKN065 OVC095 19/19
     A2980 RMK AO2 T01940194=
KOCQ 161455Z AUTO 18009G19KT 10SM SCT033 BKN046 OVC120 17/17
     A2984 RMK AO1 60002 T01720165=
KC35 161455Z AUTO 17004KT 10SM SCT037 SCT044 SCT085 21/19
     A2982 RMK AO2 60012 T02050189 PWINO=
KC35 161455Z AUTO 17004KT 10SM SCT037 SCT044 SCT085 21/19
     A2982 RMK AO2 60012 T02050189 PWINO=
KOLG 161455Z AUTO 18007G15KT 10SM OVC013 21/19 A2965 RMK
     AO1=
KOLG 161455Z AUTO 18007G15KT 10SM OVC013 21/19 A2965 RMK
     AO1=
K2P2 161455Z AUTO 19015G25KT 10SM -RA SCT050 BKN090 OVC110
     15/15 A2988 RMK AO2 P0002 60004 T01460146=
K2P2 161455Z AUTO 19015G25KT 10SM -RA SCT050 BKN090 OVC110
     15/15 A2988 RMK AO2 P0002 60004 T01460146=
KDBQ 161453Z 20012KT 10SM CLR 26/20 A2983 RMK AO2 SLP094
     T02610200 56007 $=
KDBQ 161453Z 20012KT 10SM CLR 26/20 A2983 RMK AO2 SLP094
     T02610200 56007 $=
KRST 161454Z 16013G23KT 10SM CLR 22/19 A2973 RMK AO2 SLP061
     60004 T02220194 55005=
KRST 161454Z 16013G23KT 10SM CLR 22/19 A2973 RMK AO2 SLP061
     60004 T02220194 55005=
KMSP 161453Z 18012KT 10SM BKN023 OVC029 24/19 A2965 RMK AO2
     SLP035 T02440194 58002=
KMSP 161453Z 18012KT 10SM BKN023 OVC029 24/19 A2965 RMK AO2
     SLP035 T02440194 58002=
KRFD 161454Z 18013G22KT 10SM FEW045 FEW055 BKN240 28/18
     A2988 RMK AO2 RAB1355E1357 SLP113 P0000 60002 T02830178
     58005=
KRFD 161454Z 18013G22KT 10SM FEW045 FEW055 BKN240 28/18
     A2988 RMK AO2 RAB1355E1357 SLP113 P0000 60002 T02830178
     58005=
KORD 161451Z 19014G22KT 10SM FEW050 BKN270 27/14 A2991 RMK
     AO2 PK WND 18026/1432 LTG DSNT W SLP122 T02670144
     58010=
KORD 161451Z 19014G22KT 10SM FEW050 BKN270 27/14 A2991 RMK
     AO2 PK WND 18026/1432 LTG DSNT W SLP122 T02670144
     58010=